Terminal Aerodrome Forecast
Issued by NWS

Home | Current Version | Previous Version | Graphics & Text | Print | Product List | Glossary On
Versions: 1 2 3 4 5 6 7 8 9 10 11 12 13 14 15 16 17 18 19 20
487
FTUS43 KGRB 261830 AAA
TAFAUW
TAF AMD
KAUW 261830Z 2619/2718 23012G20KT P6SM SCT030
     FM270100 VRB03KT P6SM SCT250
     FM270600 VRB03KT 4SM BR SCT008 BKN250
      TEMPO 2708/2712 1 1/2SM BR BKN005
     FM271300 12006KT 4SM -SHRA BR BKN010 OVC025=

USA.gov is the U.S. government's official web portal to all federal, state and local government web resources and services.